Time;durP1;ratioP1;P1;durP2;ratioP2;P2;SDS_P1;SDS_P2;PMS_P1;PMS_P2;Temp;Humidity;BMP_temperature;BMP_pressure;BME280_temperature;BME280_humidity;BME280_pressure;Samples;Min_cycle;Max_cycle;Signal;HPM_P1;HPM_P2
2024/03/17 00:00:42;;;;;;;11.80;7.20;;;;;;;12.14;56.53;98164.56;5032594;28;20184;-72
2024/03/17 00:03:11;;;;;;;8.30;6.30;;;;;;;12.12;56.93;98167.31;5027850;28;20239;-71
2024/03/17 00:05:37;;;;;;;15.67;7.17;;;;;;;12.02;56.89;98163.03;5027803;28;20207;-72
2024/03/17 00:08:06;;;;;;;10.07;6.97;;;;;;;12.04;56.94;98159.28;5028197;28;20459;-74
2024/03/17 00:10:32;;;;;;;8.63;6.63;;;;;;;12.06;57.06;98170.50;5036255;28;20436;-72
2024/03/17 00:12:58;;;;;;;9.77;6.73;;;;;;;12.14;56.50;98165.38;5037061;28;20435;-71
2024/03/17 00:15:23;;;;;;;8.10;6.53;;;;;;;12.14;56.77;98160.13;5034300;28;20186;-71
2024/03/17 00:17:49;;;;;;;17.70;6.50;;;;;;;12.04;57.01;98169.81;5026148;28;20477;-71
2024/03/17 00:20:19;;;;;;;10.37;7.20;;;;;;;11.92;56.97;98161.19;5028315;28;20192;-72
2024/03/17 00:22:47;;;;;;;9.40;6.70;;;;;;;11.93;57.08;98167.28;5031486;28;20647;-72
2024/03/17 00:25:12;;;;;;;11.40;5.60;;;;;;;11.85;56.83;98154.81;5024095;28;20458;-73
2024/03/17 00:27:41;;;;;;;8.10;6.03;;;;;;;11.86;56.78;98153.84;5028694;28;20450;-70
2024/03/17 00:30:12;;;;;;;6.37;5.30;;;;;;;11.68;57.39;98154.53;5038238;28;20263;-71
2024/03/17 00:32:41;;;;;;;8.00;5.93;;;;;;;11.77;57.27;98149.44;5035681;28;20490;-71
2024/03/17 00:35:08;;;;;;;9.13;5.60;;;;;;;11.86;56.66;98155.63;5027848;28;20455;-70
2024/03/17 00:37:33;;;;;;;6.77;5.00;;;;;;;11.98;56.78;98157.19;5051656;28;20433;-71
2024/03/17 00:40:01;;;;;;;9.30;5.03;;;;;;;11.92;56.65;98150.66;5031518;28;20426;-72
2024/03/17 00:42:27;;;;;;;6.77;5.70;;;;;;;11.81;56.90;98148.19;5031556;28;20342;-71
2024/03/17 00:44:52;;;;;;;8.20;6.53;;;;;;;11.66;57.28;98145.94;5022367;28;20939;-74
2024/03/17 00:47:18;;;;;;;9.13;6.13;;;;;;;11.77;57.07;98145.00;5030929;28;20216;-73
2024/03/17 00:49:43;;;;;;;7.07;5.77;;;;;;;11.81;56.70;98149.03;5039446;28;20187;-72
2024/03/17 00:52:09;;;;;;;7.87;5.90;;;;;;;11.84;57.28;98135.59;5042231;28;20282;-73
2024/03/17 00:54:34;;;;;;;10.13;6.27;;;;;;;11.84;56.60;98140.03;5030936;28;20176;-71
2024/03/17 00:57:00;;;;;;;6.00;5.20;;;;;;;11.89;57.03;98145.72;5031495;28;20179;-72
2024/03/17 00:59:25;;;;;;;10.27;6.40;;;;;;;11.66;57.21;98137.25;5034111;28;20234;-73
2024/03/17 01:01:51;;;;;;;10.03;5.80;;;;;;;11.71;57.63;98137.69;5012395;28;20271;-72
2024/03/17 01:04:16;;;;;;;7.10;5.77;;;;;;;11.78;57.33;98132.72;5034610;28;20194;-72
2024/03/17 01:06:42;;;;;;;8.40;5.30;;;;;;;11.65;57.57;98127.72;5030304;28;20891;-73
2024/03/17 01:09:10;;;;;;;5.67;5.10;;;;;;;11.68;57.36;98137.94;5031171;28;20266;-70
2024/03/17 01:11:35;;;;;;;7.63;6.07;;;;;;;11.75;57.52;98138.22;5037665;28;20226;-70
2024/03/17 01:14:01;;;;;;;8.27;5.80;;;;;;;11.62;57.51;98133.22;5030683;28;20446;-72
2024/03/17 01:16:27;;;;;;;9.40;6.20;;;;;;;11.63;57.34;98134.88;5041484;28;20203;-73
2024/03/17 01:18:52;;;;;;;8.47;5.97;;;;;;;11.57;57.20;98135.44;5033385;28;20191;-72
2024/03/17 01:21:17;;;;;;;6.50;4.90;;;;;;;11.61;57.52;98126.31;5036656;28;20776;-72
2024/03/17 01:23:43;;;;;;;14.07;5.93;;;;;;;11.53;57.37;98127.84;5030545;28;20250;-73
2024/03/17 01:26:08;;;;;;;8.70;5.20;;;;;;;11.53;57.44;98122.59;5031536;28;20369;-72
2024/03/17 01:28:34;;;;;;;8.97;5.53;;;;;;;11.52;57.44;98123.56;5037398;28;20195;-71
2024/03/17 01:30:59;;;;;;;6.90;5.50;;;;;;;11.28;58.23;98125.72;5030958;28;20192;-72
2024/03/17 01:33:25;;;;;;;6.07;5.07;;;;;;;11.36;58.48;98110.09;5033934;28;20234;-74
2024/03/17 01:35:50;;;;;;;6.23;5.07;;;;;;;11.42;58.21;98109.59;5039033;28;20711;-72
2024/03/17 01:38:16;;;;;;;7.03;5.37;;;;;;;11.37;58.31;98111.78;5029644;28;20215;-72
2024/03/17 01:40:42;;;;;;;6.90;4.90;;;;;;;11.46;58.23;98110.13;5043505;28;20188;-72
2024/03/17 01:43:10;;;;;;;6.23;4.80;;;;;;;11.47;58.29;98099.50;5056572;28;20195;-72
2024/03/17 01:45:35;;;;;;;6.33;4.47;;;;;;;11.49;58.00;98100.19;5054808;28;20428;-73
2024/03/17 01:48:02;;;;;;;5.50;4.70;;;;;;;11.55;58.23;98100.63;5065412;28;20453;-71
2024/03/17 01:50:36;;;;;;;10.10;5.37;;;;;;;11.64;57.92;98097.16;5044122;28;20215;-73
2024/03/17 01:53:09;;;;;;;7.23;4.70;;;;;;;11.60;57.86;98094.00;5024263;28;20438;-72
2024/03/17 01:55:37;;;;;;;5.43;4.93;;;;;;;11.56;57.93;98091.78;5025553;28;20477;-73
2024/03/17 01:58:03;;;;;;;6.30;4.83;;;;;;;11.59;57.99;98089.72;5021191;28;20445;-72
2024/03/17 02:00:31;;;;;;;7.10;4.97;;;;;;;11.63;57.56;98083.22;5035124;28;20819;-71
2024/03/17 02:02:56;;;;;;;4.97;4.10;;;;;;;11.70;57.85;98080.03;5037816;28;20449;-74
2024/03/17 02:05:21;;;;;;;7.50;5.07;;;;;;;11.79;58.16;98074.78;5038492;28;20414;-71
2024/03/17 02:07:48;;;;;;;14.17;5.30;;;;;;;11.86;58.13;98066.34;5030389;28;20208;-71
2024/03/17 02:10:14;;;;;;;7.10;5.10;;;;;;;11.82;58.01;98066.63;5041986;28;20186;-72
2024/03/17 02:12:40;;;;;;;7.30;5.43;;;;;;;11.79;58.10;98064.28;5042831;28;20442;-73
2024/03/17 02:15:06;;;;;;;12.20;4.93;;;;;;;11.88;57.99;98067.03;5033511;28;20547;-72
2024/03/17 02:17:32;;;;;;;5.97;4.50;;;;;;;11.81;58.39;98062.34;5032370;28;20442;-73
2024/03/17 02:19:58;;;;;;;6.80;4.97;;;;;;;11.84;58.42;98062.03;5029592;28;20432;-70
2024/03/17 02:22:23;;;;;;;11.23;5.60;;;;;;;11.93;58.35;98064.81;5029202;28;20450;-71
2024/03/17 02:24:49;;;;;;;6.03;5.37;;;;;;;11.84;58.16;98062.03;5030814;28;20184;-71
2024/03/17 02:27:14;;;;;;;6.63;5.20;;;;;;;11.83;58.38;98057.78;5039857;28;20291;-71
2024/03/17 02:29:40;;;;;;;6.30;4.97;;;;;;;11.90;58.54;98051.97;5027397;28;20184;-71
2024/03/17 02:32:08;;;;;;;7.00;4.80;;;;;;;11.90;58.41;98058.06;5031290;28;20254;-70
2024/03/17 02:34:38;;;;;;;6.47;5.00;;;;;;;11.84;57.98;98051.53;5029445;28;20211;-74
2024/03/17 02:37:05;;;;;;;6.20;5.20;;;;;;;11.77;58.18;98047.81;5038954;28;20476;-71
2024/03/17 02:39:34;;;;;;;7.30;5.10;;;;;;;11.71;58.28;98039.69;5029910;28;20518;-72
2024/03/17 02:42:04;;;;;;;6.10;5.10;;;;;;;11.76;58.20;98046.16;5032562;28;20441;-70
2024/03/17 02:44:30;;;;;;;9.73;4.53;;;;;;;11.79;58.22;98043.28;5037734;28;20421;-71
2024/03/17 02:46:57;;;;;;;5.37;4.83;;;;;;;11.84;58.17;98038.41;5026787;28;20460;-73
2024/03/17 02:49:23;;;;;;;8.03;5.20;;;;;;;11.82;58.32;98045.63;5018746;28;21110;-72
2024/03/17 02:51:49;;;;;;;7.40;4.90;;;;;;;11.79;58.40;98035.38;5033519;28;20514;-70
2024/03/17 02:54:14;;;;;;;7.00;5.37;;;;;;;11.63;58.31;98035.13;5036290;28;20995;-71
2024/03/17 02:56:40;;;;;;;8.30;5.03;;;;;;;11.59;58.08;98037.19;5027883;28;20683;-73
2024/03/17 02:59:06;;;;;;;7.87;5.23;;;;;;;11.64;57.96;98034.16;5031456;28;20191;-73
2024/03/17 03:01:31;;;;;;;6.00;5.40;;;;;;;11.70;58.12;98035.38;5040283;28;20274;-71
2024/03/17 03:03:57;;;;;;;10.27;5.33;;;;;;;11.65;58.28;98035.81;5040818;28;20455;-74
2024/03/17 03:06:22;;;;;;;8.23;5.10;;;;;;;11.73;58.30;98043.81;5030774;28;20214;-72
2024/03/17 03:08:49;;;;;;;8.30;5.40;;;;;;;11.74;58.35;98048.09;5033389;28;20695;-71
2024/03/17 03:11:16;;;;;;;6.23;4.90;;;;;;;11.77;58.35;98045.19;5028845;28;20179;-72
2024/03/17 03:13:42;;;;;;;9.57;5.93;;;;;;;11.64;57.96;98044.66;5028804;28;20450;-72
2024/03/17 03:16:11;;;;;;;9.60;5.80;;;;;;;11.61;58.32;98034.41;5031596;28;20465;-70
2024/03/17 03:18:38;;;;;;;10.57;5.80;;;;;;;11.57;58.58;98036.50;5033174;28;20946;-70
2024/03/17 03:21:04;;;;;;;5.33;4.83;;;;;;;11.54;58.33;98036.75;5039462;28;20802;-73
2024/03/17 03:23:31;;;;;;;6.73;5.17;;;;;;;11.50;58.26;98038.84;5034019;28;20447;-71
2024/03/17 03:26:02;;;;;;;7.93;5.10;;;;;;;11.50;58.47;98041.47;5029534;28;20565;-73
2024/03/17 03:28:29;;;;;;;6.97;5.07;;;;;;;11.56;58.16;98036.66;5043037;28;20511;-72
2024/03/17 03:30:54;;;;;;;5.80;5.03;;;;;;;11.57;57.98;98028.63;5030179;28;20426;-70
2024/03/17 03:33:20;;;;;;;8.83;5.20;;;;;;;11.46;58.31;98036.63;5033383;28;20500;-72
2024/03/17 03:35:46;;;;;;;8.50;5.73;;;;;;;11.48;58.14;98034.72;5036635;28;20184;-71
2024/03/17 03:38:13;;;;;;;9.40;4.97;;;;;;;11.38;58.44;98037.31;5028184;28;20190;-71
2024/03/17 03:40:39;;;;;;;6.33;4.93;;;;;;;11.35;58.83;98035.81;5040165;28;20187;-72
2024/03/17 03:43:05;;;;;;;11.33;5.37;;;;;;;11.31;58.53;98031.78;5036883;28;20472;-74
2024/03/17 03:45:30;;;;;;;8.53;4.70;;;;;;;11.29;58.56;98022.41;5035457;28;20917;-70
2024/03/17 03:47:56;;;;;;;5.93;5.10;;;;;;;11.27;58.19;98024.34;5029028;28;20241;-72
2024/03/17 03:50:22;;;;;;;7.47;5.60;;;;;;;11.22;58.57;98027.38;5034582;28;20191;-74
2024/03/17 03:52:48;;;;;;;6.63;5.37;;;;;;;11.25;58.38;98027.09;5036091;28;20191;-71
2024/03/17 03:55:16;;;;;;;8.40;5.53;;;;;;;11.34;58.20;98035.97;5028384;28;20936;-72
2024/03/17 03:57:42;;;;;;;12.10;6.07;;;;;;;11.29;58.74;98031.09;5028905;28;20626;-72
2024/03/17 04:00:12;;;;;;;6.00;5.13;;;;;;;11.30;58.39;98037.19;5036738;28;20425;-71
2024/03/17 04:02:44;;;;;;;6.83;5.37;;;;;;;11.25;58.79;98032.34;5041547;28;20207;-71
2024/03/17 04:05:10;;;;;;;6.43;5.13;;;;;;;11.34;58.76;98031.53;5024652;28;20464;-70
2024/03/17 04:07:36;;;;;;;8.03;5.80;;;;;;;11.36;58.26;98032.22;5027100;28;20465;-73
2024/03/17 04:10:02;;;;;;;8.43;6.00;;;;;;;11.29;58.56;98023.22;5031667;28;20422;-70
2024/03/17 04:12:30;;;;;;;6.83;5.37;;;;;;;11.26;58.48;98020.88;5037224;28;20269;-73
2024/03/17 04:14:59;;;;;;;8.27;5.77;;;;;;;11.27;58.48;98032.19;5038483;28;20421;-73
2024/03/17 04:17:25;;;;;;;6.07;5.27;;;;;;;11.22;58.52;98027.38;5032568;28;20951;-72
2024/03/17 04:19:51;;;;;;;6.60;5.10;;;;;;;11.17;58.48;98040.06;5054789;28;20464;-72
2024/03/17 04:22:16;;;;;;;12.43;6.07;;;;;;;11.07;58.75;98035.63;5033312;28;20261;-72
2024/03/17 04:24:56;;;;;;;6.13;5.13;;;;;;;11.11;59.10;98040.59;5036270;28;20245;-73
2024/03/17 04:27:24;;;;;;;7.50;6.17;;;;;;;11.22;58.79;98037.84;5027736;28;20211;-73
2024/03/17 04:29:52;;;;;;;10.30;6.50;;;;;;;11.21;58.52;98031.78;5034252;28;20430;-71
2024/03/17 04:32:17;;;;;;;10.10;6.43;;;;;;;11.17;58.99;98037.44;5022483;28;20998;-71
2024/03/17 04:34:45;;;;;;;8.43;7.10;;;;;;;11.15;58.88;98024.47;5034457;28;20458;-72
2024/03/17 04:37:12;;;;;;;10.03;6.53;;;;;;;11.11;58.87;98036.19;5030427;28;20194;-72
2024/03/17 04:39:44;;;;;;;11.67;6.40;;;;;;;11.12;58.63;98040.47;5038836;28;20430;-72
2024/03/17 04:42:11;;;;;;;10.57;7.47;;;;;;;11.20;58.62;98034.53;5030171;28;20454;-70
2024/03/17 04:44:36;;;;;;;10.50;6.07;;;;;;;11.17;58.52;98033.03;5024237;28;20447;-72
2024/03/17 04:47:06;;;;;;;10.03;6.70;;;;;;;11.10;58.77;98031.88;5042626;28;20925;-71
2024/03/17 04:49:35;;;;;;;10.83;6.90;;;;;;;10.98;59.14;98032.97;5030881;28;20184;-73
2024/03/17 04:52:00;;;;;;;7.53;5.83;;;;;;;11.00;59.13;98034.53;5029950;28;20468;-73
2024/03/17 04:54:26;;;;;;;11.10;7.07;;;;;;;10.95;59.03;98035.88;5026558;28;20419;-70
2024/03/17 04:56:51;;;;;;;10.90;6.93;;;;;;;11.01;59.03;98037.97;5033025;28;20190;-72
2024/03/17 04:59:17;;;;;;;9.53;6.43;;;;;;;11.10;58.78;98034.50;5035375;28;20202;-70
2024/03/17 05:01:42;;;;;;;7.87;6.43;;;;;;;11.16;58.72;98038.38;5030833;28;20187;-72
2024/03/17 05:04:08;;;;;;;7.87;6.30;;;;;;;11.03;58.63;98030.78;5031684;28;20306;-72
2024/03/17 05:06:33;;;;;;;8.57;6.93;;;;;;;11.04;58.56;98029.81;5039374;28;20252;-71
2024/03/17 05:08:59;;;;;;;11.07;7.10;;;;;;;11.09;58.44;98035.47;5022811;28;20295;-73
2024/03/17 05:11:24;;;;;;;12.10;6.40;;;;;;;11.16;58.36;98030.53;5042376;28;20183;-73
2024/03/17 05:13:50;;;;;;;9.00;6.60;;;;;;;11.16;57.80;98031.38;5041430;28;20235;-71
2024/03/17 05:16:15;;;;;;;9.33;8.23;;;;;;;11.02;58.10;98031.75;5037269;28;20196;-72
2024/03/17 05:18:41;;;;;;;11.87;9.43;;;;;;;10.90;58.96;98034.47;5030392;28;20215;-70
2024/03/17 05:21:08;;;;;;;11.70;8.37;;;;;;;10.97;58.83;98033.94;5040208;28;20190;-73
2024/03/17 05:23:37;;;;;;;9.03;6.67;;;;;;;10.85;58.89;98036.66;5032735;28;20230;-73
2024/03/17 05:26:04;;;;;;;11.67;7.63;;;;;;;10.94;59.22;98036.84;5035192;28;20990;-72
2024/03/17 05:28:30;;;;;;;14.43;8.00;;;;;;;11.02;59.12;98039.63;5035068;28;20418;-72
2024/03/17 05:30:56;;;;;;;15.93;8.90;;;;;;;11.07;59.21;98035.63;5032509;28;20437;-70
2024/03/17 05:33:23;;;;;;;10.50;8.23;;;;;;;11.08;59.21;98044.34;5034364;28;20843;-72
2024/03/17 05:35:56;;;;;;;13.53;9.00;;;;;;;11.07;59.50;98040.06;5030538;28;20850;-71
2024/03/17 05:38:26;;;;;;;12.30;8.70;;;;;;;11.17;59.27;98040.91;5030823;28;20426;-71
2024/03/17 05:40:53;;;;;;;9.70;7.97;;;;;;;11.05;59.29;98034.94;5041189;28;20425;-71
2024/03/17 05:43:19;;;;;;;10.63;7.97;;;;;;;11.02;59.00;98037.84;5031631;28;20442;-70
2024/03/17 05:45:44;;;;;;;12.20;7.77;;;;;;;10.93;58.99;98037.81;5034177;28;20436;-73
2024/03/17 05:48:09;;;;;;;13.00;7.30;;;;;;;10.94;59.24;98034.22;5035098;28;20215;-71
2024/03/17 05:50:35;;;;;;;10.03;8.20;;;;;;;11.04;59.30;98032.44;5041541;28;20179;-72
2024/03/17 05:53:00;;;;;;;15.50;8.50;;;;;;;11.04;59.04;98029.81;5032314;28;20934;-73
2024/03/17 05:55:26;;;;;;;10.10;7.50;;;;;;;11.01;58.95;98032.72;5030026;28;20183;-73
2024/03/17 05:57:51;;;;;;;9.73;7.97;;;;;;;11.08;59.06;98036.47;5029680;28;20266;-71
2024/03/17 06:00:17;;;;;;;11.00;8.37;;;;;;;10.95;58.71;98025.41;5032735;28;20184;-73
2024/03/17 06:02:44;;;;;;;9.70;7.07;;;;;;;10.87;58.66;98023.44;5040710;28;20209;-72
2024/03/17 06:05:12;;;;;;;8.10;6.57;;;;;;;10.95;58.61;98030.63;5033791;28;20789;-71
2024/03/17 06:07:37;;;;;;;10.10;7.23;;;;;;;10.94;58.69;98034.22;5034728;28;20507;-72
2024/03/17 06:10:03;;;;;;;8.23;7.30;;;;;;;10.98;58.68;98032.97;5034797;28;20430;-72
2024/03/17 06:12:30;;;;;;;8.50;7.60;;;;;;;11.08;58.52;98031.22;5029029;28;20203;-71
2024/03/17 06:14:56;;;;;;;12.30;9.07;;;;;;;11.25;58.68;98036.75;5033748;28;20184;-70
2024/03/17 06:17:21;;;;;;;10.00;7.70;;;;;;;11.35;58.72;98034.97;5027349;28;20430;-73
2024/03/17 06:19:47;;;;;;;10.23;7.97;;;;;;;11.46;58.49;98028.75;5034022;28;20641;-72
2024/03/17 06:22:12;;;;;;;12.60;7.77;;;;;;;11.63;58.27;98030.72;5032327;28;20209;-70
2024/03/17 06:24:37;;;;;;;10.03;8.00;;;;;;;11.79;57.87;98026.66;5041191;28;20267;-72
2024/03/17 06:27:03;;;;;;;10.83;8.90;;;;;;;11.93;57.91;98025.41;5029244;28;20218;-72
2024/03/17 06:29:29;;;;;;;12.80;7.87;;;;;;;12.05;57.38;98024.31;5034844;28;20191;-71
2024/03/17 06:31:54;;;;;;;10.70;8.30;;;;;;;12.24;57.30;98022.59;5024436;28;20188;-73
2024/03/17 06:34:20;;;;;;;9.10;8.07;;;;;;;12.30;57.37;98016.78;5028355;28;20711;-73
2024/03/17 06:36:48;;;;;;;11.57;9.50;;;;;;;12.34;57.12;98015.53;5027930;28;20175;-73
2024/03/17 06:39:15;;;;;;;10.53;8.63;;;;;;;12.48;57.19;98016.00;5027981;28;20274;-71
2024/03/17 06:41:42;;;;;;;11.63;9.43;;;;;;;12.58;56.83;98024.72;5035952;28;20982;-69
2024/03/17 06:44:08;;;;;;;11.23;9.67;;;;;;;12.52;57.30;98030.53;5033810;28;20438;-72
2024/03/17 06:46:33;;;;;;;14.67;10.53;;;;;;;12.57;57.56;98026.50;5045008;28;20461;-71
2024/03/17 06:48:59;;;;;;;14.13;11.43;;;;;;;12.66;57.65;98024.00;5043306;28;20179;-72
2024/03/17 06:51:25;;;;;;;13.43;11.47;;;;;;;12.58;57.64;98019.47;5035550;28;20240;-71
2024/03/17 06:53:50;;;;;;;14.97;11.17;;;;;;;12.73;57.67;98015.34;5028828;28;20439;-75
2024/03/17 06:56:16;;;;;;;12.57;11.23;;;;;;;12.89;58.14;98022.63;5033928;28;20210;-71
2024/03/17 06:58:41;;;;;;;18.73;11.90;;;;;;;13.09;58.21;98016.41;5028928;28;20187;-71
2024/03/17 07:01:08;;;;;;;19.17;15.30;;;;;;;13.14;57.68;98019.41;5037499;28;20324;-75
2024/03/17 07:03:33;;;;;;;14.77;12.40;;;;;;;13.11;58.02;98014.44;5030100;28;20576;-72
2024/03/17 07:06:02;;;;;;;16.50;13.50;;;;;;;13.30;58.06;98022.22;5028939;28;20418;-72
2024/03/17 07:08:28;;;;;;;16.23;12.70;;;;;;;13.50;57.60;98016.81;5029174;28;20192;-73
2024/03/17 07:11:04;;;;;;;15.20;12.83;;;;;;;13.66;57.76;98019.59;5028789;28;20800;-72
2024/03/17 07:13:34;;;;;;;17.77;12.67;;;;;;;13.73;57.11;98026.91;5028120;28;20504;-71
2024/03/17 07:16:01;;;;;;;12.40;11.10;;;;;;;13.47;56.96;98019.78;5033717;28;20441;-73
2024/03/17 07:18:30;;;;;;;14.90;12.83;;;;;;;13.48;57.13;98014.34;5028407;28;20911;-73
2024/03/17 07:20:57;;;;;;;13.73;11.90;;;;;;;13.44;57.15;98014.81;5028705;28;20980;-73
2024/03/17 07:23:22;;;;;;;16.53;12.77;;;;;;;13.45;57.41;98014.66;5041134;28;20445;-73
2024/03/17 07:25:55;;;;;;;14.60;12.43;;;;;;;13.46;58.25;98012.84;5030174;28;20432;-71
2024/03/17 07:28:20;;;;;;;15.60;12.53;;;;;;;13.62;57.77;98010.34;5028060;28;20211;-71
2024/03/17 07:30:50;;;;;;;15.67;12.83;;;;;;;13.83;58.14;98003.94;5019845;28;20510;-70
2024/03/17 07:33:15;;;;;;;15.00;12.83;;;;;;;13.88;57.70;98000.84;5032529;28;20251;-72
2024/03/17 07:35:47;;;;;;;14.83;13.13;;;;;;;13.92;56.79;98007.47;5036031;28;20426;-73
2024/03/17 07:38:13;;;;;;;16.13;12.70;;;;;;;13.98;56.74;97999.78;5040537;28;20180;-72
2024/03/17 07:40:38;;;;;;;17.90;14.97;;;;;;;14.11;56.94;98015.16;5020738;28;20943;-73
2024/03/17 07:43:04;;;;;;;20.30;15.17;;;;;;;14.26;56.81;98006.69;5041980;28;20250;-73
2024/03/17 07:45:29;;;;;;;18.27;16.37;;;;;;;14.35;56.67;98000.47;5032940;28;20174;-72
2024/03/17 07:47:55;;;;;;;25.57;17.03;;;;;;;14.39;56.39;98004.44;5037414;28;20691;-73
2024/03/17 07:50:21;;;;;;;24.60;18.87;;;;;;;14.38;56.30;98000.16;5034003;28;20190;-71
2024/03/17 07:52:46;;;;;;;25.67;20.27;;;;;;;14.49;55.90;98001.66;5031721;28;20443;-72
2024/03/17 07:55:12;;;;;;;23.43;18.03;;;;;;;14.61;55.56;98002.22;5036742;28;20649;-72
2024/03/17 07:57:38;;;;;;;22.57;18.30;;;;;;;14.70;55.29;98005.75;5025816;28;20175;-71
2024/03/17 08:00:04;;;;;;;19.53;17.43;;;;;;;14.74;55.33;98012.38;5040521;28;20518;-72
2024/03/17 08:02:29;;;;;;;19.47;14.97;;;;;;;14.78;55.38;98012.88;5045341;28;20200;-72
2024/03/17 08:04:54;;;;;;;15.60;13.80;;;;;;;14.81;54.93;98010.75;5039374;28;20432;-72
2024/03/17 08:07:20;;;;;;;14.73;13.10;;;;;;;14.78;54.52;98008.41;5035927;28;20239;-73
2024/03/17 08:09:46;;;;;;;16.33;12.57;;;;;;;14.87;54.72;98004.00;5045004;28;20202;-70
2024/03/17 08:12:11;;;;;;;15.20;11.33;;;;;;;14.90;54.67;98007.16;5034021;28;20735;-74
2024/03/17 08:14:37;;;;;;;12.60;10.27;;;;;;;14.82;53.69;98008.94;5034796;28;20218;-71
2024/03/17 08:17:02;;;;;;;12.90;10.63;;;;;;;14.84;54.47;98006.97;5046266;28;20282;-74
2024/03/17 08:19:28;;;;;;;11.60;10.40;;;;;;;14.84;54.09;98002.53;5040216;28;20560;-72
2024/03/17 08:21:53;;;;;;;12.63;11.20;;;;;;;14.87;54.42;98007.47;5035434;28;20211;-72
2024/03/17 08:24:19;;;;;;;13.60;11.53;;;;;;;14.92;54.58;98003.53;5041125;28;20255;-74
2024/03/17 08:26:45;;;;;;;23.83;12.30;;;;;;;14.90;53.69;98007.16;5041442;28;20263;-74
2024/03/17 08:29:11;;;;;;;14.60;11.43;;;;;;;14.97;54.08;98001.25;5037010;28;20191;-72
2024/03/17 08:31:37;;;;;;;14.03;11.00;;;;;;;15.04;54.22;98004.88;5034957;28;20516;-73
2024/03/17 08:34:02;;;;;;;10.43;9.33;;;;;;;15.16;53.99;98006.22;5037313;28;20545;-74
2024/03/17 08:36:28;;;;;;;14.90;11.63;;;;;;;15.28;53.51;98003.25;5030446;28;20179;-74
2024/03/17 08:38:54;;;;;;;10.27;9.13;;;;;;;15.39;53.08;98007.41;5037225;28;20183;-73
2024/03/17 08:41:20;;;;;;;11.03;8.53;;;;;;;15.44;52.28;97995.38;5040217;28;20487;-72
2024/03/17 08:43:46;;;;;;;11.10;9.07;;;;;;;15.49;52.09;97994.88;5031719;28;20445;-71
2024/03/17 08:46:13;;;;;;;11.27;9.37;;;;;;;15.64;51.54;97993.22;5040992;28;20194;-72
2024/03/17 08:48:40;;;;;;;8.47;7.67;;;;;;;15.78;51.70;97986.44;5030975;28;20191;-72
2024/03/17 08:51:06;;;;;;;9.90;7.87;;;;;;;16.00;51.83;97986.81;5040533;28;20457;-72
2024/03/17 08:53:33;;;;;;;13.53;9.83;;;;;;;16.16;50.80;97974.50;5035619;28;20438;-73
2024/03/17 08:55:59;;;;;;;13.93;8.70;;;;;;;16.40;50.89;97982.38;5041456;28;20426;-73
2024/03/17 08:58:25;;;;;;;9.53;7.60;;;;;;;16.48;49.31;97983.38;5040316;28;20428;-73
2024/03/17 09:00:51;;;;;;;9.13;7.70;;;;;;;16.51;49.46;97990.94;5042904;28;20938;-71
2024/03/17 09:03:16;;;;;;;7.00;6.27;;;;;;;16.43;48.31;97986.53;5036577;28;20450;-71
2024/03/17 09:05:43;;;;;;;8.30;5.90;;;;;;;16.50;48.50;97984.03;5038728;28;20186;-71
2024/03/17 09:08:20;;;;;;;8.40;6.87;;;;;;;16.70;48.68;97982.59;5036810;28;20216;-71
2024/03/17 09:10:48;;;;;;;7.67;6.97;;;;;;;16.90;48.83;97971.56;5031125;28;20967;-70
2024/03/17 09:13:19;;;;;;;7.80;5.87;;;;;;;16.95;47.90;97968.47;5030549;28;20446;-73
2024/03/17 09:15:56;;;;;;;8.90;5.70;;;;;;;17.04;47.53;97970.84;5033111;28;20415;-71
2024/03/17 09:18:22;;;;;;;7.80;5.20;;;;;;;17.13;46.42;97974.28;5030416;28;20888;-72
2024/03/17 09:20:58;;;;;;;7.00;6.30;;;;;;;17.29;45.57;97970.69;5042370;28;20447;-72
2024/03/17 09:23:24;;;;;;;6.70;5.83;;;;;;;17.42;44.94;97972.75;5036190;28;20230;-71
2024/03/17 09:25:57;;;;;;;5.93;5.30;;;;;;;17.43;44.39;97965.63;5030315;28;20951;-71
2024/03/17 09:28:22;;;;;;;7.30;4.90;;;;;;;17.39;43.06;97959.06;5038487;28;20219;-71
2024/03/17 09:30:49;;;;;;;6.23;5.47;;;;;;;17.35;43.03;97963.88;5037943;28;20426;-72
2024/03/17 09:33:14;;;;;;;5.60;5.10;;;;;;;17.41;43.18;97970.28;5032478;28;20299;-73
2024/03/17 09:35:40;;;;;;;6.40;5.10;;;;;;;17.46;43.47;97970.59;5038143;28;20520;-72
2024/03/17 09:38:06;;;;;;;6.33;4.50;;;;;;;17.43;42.85;97971.75;5033926;28;20180;-72
2024/03/17 09:40:31;;;;;;;10.30;3.90;;;;;;;17.43;39.71;97961.16;5038337;28;20214;-73
2024/03/17 09:42:57;;;;;;;4.43;3.93;;;;;;;17.44;39.88;97961.97;5037500;28;20298;-73
2024/03/17 09:45:24;;;;;;;5.80;4.50;;;;;;;17.52;39.93;97958.44;5033198;28;20215;-72
2024/03/17 09:47:51;;;;;;;8.43;3.90;;;;;;;17.50;38.71;97962.09;5024130;28;20211;-72
2024/03/17 09:50:18;;;;;;;4.50;3.83;;;;;;;17.52;39.25;97964.56;5032695;28;20427;-72
2024/03/17 09:52:45;;;;;;;4.80;3.90;;;;;;;17.47;38.86;97972.22;5031305;28;20454;-72
2024/03/17 09:55:15;;;;;;;4.40;3.80;;;;;;;17.52;39.47;97956.59;5030013;28;20514;-72
2024/03/17 09:57:40;;;;;;;4.57;4.00;;;;;;;17.56;39.65;97959.75;5029465;28;20433;-71
2024/03/17 10:00:14;;;;;;;4.50;3.43;;;;;;;17.48;39.59;97958.78;5038077;28;20852;-72
2024/03/17 10:02:45;;;;;;;4.50;4.10;;;;;;;17.44;38.67;97972.56;5030998;28;20290;-72
2024/03/17 10:05:22;;;;;;;4.47;3.20;;;;;;;17.56;39.01;97965.84;5038471;28;20426;-72
2024/03/17 10:07:51;;;;;;;4.40;3.93;;;;;;;17.65;38.94;97963.97;5039688;28;20527;-70
2024/03/17 10:10:17;;;;;;;4.83;4.33;;;;;;;17.89;38.85;97954.97;5029406;28;20434;-73
2024/03/17 10:12:43;;;;;;;4.97;4.30;;;;;;;17.83;38.49;97944.25;5023797;28;20482;-72
2024/03/17 10:15:11;;;;;;;4.97;4.53;;;;;;;17.73;38.65;97949.81;5035526;28;20500;-72
2024/03/17 10:17:37;;;;;;;4.90;4.40;;;;;;;17.82;38.64;97954.03;5032154;28;20191;-73
2024/03/17 10:20:20;;;;;;;6.07;3.80;;;;;;;17.90;38.57;97953.13;5041346;28;20429;-72
2024/03/17 10:23:05;;;;;;;4.80;3.60;;;;;;;17.98;37.70;97958.38;5029261;28;20440;-71
2024/03/17 10:25:35;;;;;;;9.23;3.27;;;;;;;17.93;37.63;97960.72;5029677;28;20435;-72
2024/03/17 10:28:01;;;;;;;5.20;4.00;;;;;;;18.01;37.54;97957.22;5036306;28;20508;-71
2024/03/17 10:30:29;;;;;;;4.20;3.03;;;;;;;18.04;37.78;97952.34;5036096;28;20421;-72
2024/03/17 10:32:58;;;;;;;8.70;3.30;;;;;;;18.23;37.10;97951.00;5026327;28;20477;-72
2024/03/17 10:35:32;;;;;;;3.73;3.30;;;;;;;18.41;36.69;97953.25;5030739;28;20934;-71
2024/03/17 10:38:02;;;;;;;4.20;3.53;;;;;;;18.70;37.05;97950.75;5025125;28;20430;-71
2024/03/17 10:40:30;;;;;;;4.70;3.00;;;;;;;18.96;36.95;97954.75;5037645;28;20429;-72
2024/03/17 10:42:56;;;;;;;3.40;3.10;;;;;;;19.08;36.41;97960.41;5023344;28;20465;-72
2024/03/17 10:45:22;;;;;;;10.10;4.10;;;;;;;18.96;35.84;97962.72;5043020;28;20437;-73
2024/03/17 10:47:49;;;;;;;3.77;3.47;;;;;;;18.73;36.20;97953.84;5029347;28;20460;-71
2024/03/17 10:50:22;;;;;;;3.80;3.47;;;;;;;18.81;36.17;97952.91;5033621;28;20188;-72
2024/03/17 10:52:51;;;;;;;4.77;3.17;;;;;;;18.88;36.87;97953.84;5028300;28;20794;-70
2024/03/17 10:55:24;;;;;;;6.03;3.30;;;;;;;18.78;36.44;97963.91;5027977;28;20488;-70
2024/03/17 10:57:55;;;;;;;4.50;3.27;;;;;;;18.80;36.74;97955.78;5028291;28;20431;-70
2024/03/17 11:00:24;;;;;;;3.40;3.00;;;;;;;18.90;36.77;97955.47;5039999;28;20462;-72
2024/03/17 11:02:52;;;;;;;3.80;3.50;;;;;;;18.85;36.52;97962.16;5036580;28;20446;-71
2024/03/17 11:05:36;;;;;;;5.10;3.70;;;;;;;18.73;36.50;97959.16;5033023;28;20456;-71
2024/03/17 11:08:02;;;;;;;4.70;3.33;;;;;;;18.78;37.23;97957.78;5020220;28;20472;-72
2024/03/17 11:10:29;;;;;;;7.30;3.90;;;;;;;18.74;37.10;97944.06;5030321;28;20426;-73
2024/03/17 11:12:59;;;;;;;8.50;3.73;;;;;;;18.68;36.95;97944.78;5045150;28;20203;-72
2024/03/17 11:15:34;;;;;;;5.27;3.40;;;;;;;18.57;37.32;97941.63;5037534;28;20427;-74
2024/03/17 11:18:11;;;;;;;3.73;3.33;;;;;;;18.36;36.93;97937.06;5028562;28;20446;-72
2024/03/17 11:20:40;;;;;;;4.13;3.50;;;;;;;18.51;37.71;97946.84;5028347;28;20488;-70
2024/03/17 11:23:06;;;;;;;7.33;3.80;;;;;;;18.53;37.56;97944.84;5038290;28;20450;-72
2024/03/17 11:25:33;;;;;;;4.63;3.10;;;;;;;18.76;37.65;97939.41;5028887;28;20426;-76
2024/03/17 11:28:11;;;;;;;5.30;3.40;;;;;;;18.77;36.81;97930.44;5023171;28;20216;-71